Valdosta, GA (31601)

4:14 PM EST on February 01, 2015 (GMT -0500)
Audio Video and Security Inc. | Change Station
CLOSE
Current Station
Personal Weather Station
Location: Valdosta, GA
Elevation: 220 ft
Nearby Weather Stations

Elev 220 ft 30.81 °N, 83.32 °W | Updated 28 seconds ago

Scattered Clouds
Scattered Clouds
70.9 °F
Feels Like 77 °F
N
6.9
Wind Variable Wind from NNW
Gusts 12.1 mph

Today
High -- | Low -- °F
--% Chance of Precip.
Yesterday
High -- | Low -- °F
Precip. -- in
7:24 AM 6:09 PM
Waxing Gibbous, 96% visible
Pressure 30.09 in
Visibility 10.0 miles
Clouds Scattered Clouds 5500 ft
Heat Index 77 °F
Dew Point 48 °F
Humidity 45%
Rainfall 0.00 in
Snow Depth Not available.
UV 4 out of 12
Pollen 3.10 out of 12
Air Quality Not available.
Flu Activity Not available.
METAR KVLD 011953Z 21010G17KT 170V240 10SM SCT055 22/09 A3006 RMK AO2 SLP187 T02170089

More Conditions Fewer Conditions

Pressure 30.09 in
Visibility 10.0 miles
Clouds Scattered Clouds 5500 ft
Heat Index 77 °F
Dew Point 48 °F
Humidity 45%
Rainfall 0.00 in
Snow Depth Not available.
UV 4 out of 12
Pollen 3.10 out of 12
Air Quality Not available.
Flu Activity Not available.
METAR KVLD 011953Z 21010G17KT 170V240 10SM SCT055 22/09 A3006 RMK AO2 SLP187 T02170089

More Conditions Fewer Conditions

10-Day Weather Forecast

Almanac

Astronomy

Feb. 01, 2015 Rise Set
Actual Time
Civil Twilight
Nautical Twilight
Astronomical Twilight
Moon
Length of Visible Light
Length of Day
Tomorrow will be .
, % of the Moon is Illuminated

Today's Extremes

State Highs State Lows

Community

WunderPhotos

Upload Photos

1,792,535 photos uploaded!

WunderBlogs® & News

Nearby

Air Quality

  Air Quality AQ Index Pollutant
Not available.

Snow Depth

Station Depth Elevation

Earthquake Activity

City Distance Mag. Time & Date
Minimum magnitude displayed is 2.5.

Coastal Water Temperatures

Place Temperature

Nearby Weather Stations